KMTH/MTH METAR and TAF weather

Enter ICAO airport designator
Station Type Date Time Source
KMTH METAR 2021/05/15 00:53 UTC NOAA

KMTH 150053Z AUTO 07006KT 10SM CLR 28/21 A3002 RMK AO2 SLP164 T02780206 $


Station Type Date Time Source
KMTH Decoded METAR 2021/05/15 00:53 UTC NOAA

MARATHON AIRPORT, FL, United States (KMTH) 24-44N 81-03W 2M
May 14, 2021 - 08:53 PM EDT / 2021.05.15 0053 UTC
Wind: from the ENE (070 degrees) at 7 MPH (6 KT):0
Visibility: 10 mile(s):0
Sky conditions: clear
Temperature: 82.0 F (27.8 C)
Dew Point: 69.1 F (20.6 C)
Relative Humidity: 64%
Pressure (altimeter): 30.02 in. Hg (1016 hPa)
ob: KMTH 150053Z AUTO 07006KT 10SM CLR 28/21 A3002 RMK AO2 SLP164 T02780206
cycle: 1

Station Type Date Time Source
KMTH TAF 2021/05/14 18:48 UTC NOAA

TAF KMTH 141746Z 1418/1518 04010KT P6SM SCT020 BKN120
FM150000 05007KT P6SM VCTS SCT020CB BKN120
FM151500 05012G18KT P6SM SCT020

Example: see airport list